sensor_id;sensor_type;location;lat;lon;timestamp;temperature;humidity
15554;DHT22;7878;44.632;10.942;2023-02-10T00:02:03;3.70;49.40
15554;DHT22;7878;44.632;10.942;2023-02-10T00:04:28;3.70;49.40
15554;DHT22;7878;44.632;10.942;2023-02-10T00:06:54;3.70;49.40
15554;DHT22;7878;44.632;10.942;2023-02-10T00:09:20;3.70;49.40
15554;DHT22;7878;44.632;10.942;2023-02-10T00:11:45;3.70;49.50
15554;DHT22;7878;44.632;10.942;2023-02-10T00:14:25;3.70;49.50
15554;DHT22;7878;44.632;10.942;2023-02-10T00:16:52;3.60;49.50
15554;DHT22;7878;44.632;10.942;2023-02-10T00:19:19;3.60;49.60
15554;DHT22;7878;44.632;10.942;2023-02-10T00:21:45;3.70;49.60
15554;DHT22;7878;44.632;10.942;2023-02-10T00:24:11;3.60;49.50
15554;DHT22;7878;44.632;10.942;2023-02-10T00:26:37;3.60;49.50
15554;DHT22;7878;44.632;10.942;2023-02-10T00:29:03;3.60;49.50
15554;DHT22;7878;44.632;10.942;2023-02-10T00:31:29;3.60;49.50
15554;DHT22;7878;44.632;10.942;2023-02-10T00:33:54;3.50;49.60
15554;DHT22;7878;44.632;10.942;2023-02-10T00:36:20;3.60;49.50
15554;DHT22;7878;44.632;10.942;2023-02-10T00:38:47;3.50;49.40
15554;DHT22;7878;44.632;10.942;2023-02-10T00:41:16;3.50;49.60
15554;DHT22;7878;44.632;10.942;2023-02-10T00:43:43;3.50;49.60
15554;DHT22;7878;44.632;10.942;2023-02-10T00:46:14;3.50;49.50
15554;DHT22;7878;44.632;10.942;2023-02-10T00:48:40;3.50;49.50
15554;DHT22;7878;44.632;10.942;2023-02-10T00:51:06;3.50;49.60
15554;DHT22;7878;44.632;10.942;2023-02-10T00:53:32;3.50;49.60
15554;DHT22;7878;44.632;10.942;2023-02-10T00:55:58;3.50;49.40
15554;DHT22;7878;44.632;10.942;2023-02-10T00:58:24;3.50;49.50
15554;DHT22;7878;44.632;10.942;2023-02-10T01:00:53;3.50;49.40
15554;DHT22;7878;44.632;10.942;2023-02-10T01:03:18;3.50;49.40
15554;DHT22;7878;44.632;10.942;2023-02-10T01:05:44;3.50;49.30
15554;DHT22;7878;44.632;10.942;2023-02-10T01:08:13;3.50;49.40
15554;DHT22;7878;44.632;10.942;2023-02-10T01:10:39;3.50;49.40
15554;DHT22;7878;44.632;10.942;2023-02-10T01:13:07;3.50;49.40
15554;DHT22;7878;44.632;10.942;2023-02-10T01:15:33;3.40;49.30
15554;DHT22;7878;44.632;10.942;2023-02-10T01:17:58;3.40;49.20
15554;DHT22;7878;44.632;10.942;2023-02-10T01:20:25;3.50;49.30
15554;DHT22;7878;44.632;10.942;2023-02-10T01:22:50;3.40;49.30
15554;DHT22;7878;44.632;10.942;2023-02-10T01:25:16;3.40;49.30
15554;DHT22;7878;44.632;10.942;2023-02-10T01:27:42;3.40;49.60
15554;DHT22;7878;44.632;10.942;2023-02-10T01:30:08;3.40;49.40
15554;DHT22;7878;44.632;10.942;2023-02-10T01:32:34;3.30;49.30
15554;DHT22;7878;44.632;10.942;2023-02-10T01:34:59;3.30;49.30
15554;DHT22;7878;44.632;10.942;2023-02-10T01:37:25;3.30;49.20
15554;DHT22;7878;44.632;10.942;2023-02-10T01:39:51;3.30;49.10
15554;DHT22;7878;44.632;10.942;2023-02-10T01:42:16;3.30;49.30
15554;DHT22;7878;44.632;10.942;2023-02-10T01:47:08;3.30;49.30
15554;DHT22;7878;44.632;10.942;2023-02-10T01:49:39;3.30;49.30
15554;DHT22;7878;44.632;10.942;2023-02-10T01:52:12;3.30;49.20
15554;DHT22;7878;44.632;10.942;2023-02-10T01:54:43;3.30;49.30
15554;DHT22;7878;44.632;10.942;2023-02-10T01:57:11;3.30;49.30
15554;DHT22;7878;44.632;10.942;2023-02-10T01:59:38;3.30;49.40
15554;DHT22;7878;44.632;10.942;2023-02-10T02:02:06;3.30;49.40
15554;DHT22;7878;44.632;10.942;2023-02-10T02:04:49;3.30;49.50
15554;DHT22;7878;44.632;10.942;2023-02-10T02:07:17;3.30;49.50
15554;DHT22;7878;44.632;10.942;2023-02-10T02:09:44;3.20;49.50
15554;DHT22;7878;44.632;10.942;2023-02-10T02:17:42;3.10;49.50
15554;DHT22;7878;44.632;10.942;2023-02-10T02:20:16;3.10;49.80
15554;DHT22;7878;44.632;10.942;2023-02-10T02:23:31;3.10;49.70
15554;DHT22;7878;44.632;10.942;2023-02-10T02:26:36;3.10;49.80
15554;DHT22;7878;44.632;10.942;2023-02-10T02:32:21;3.00;49.60
15554;DHT22;7878;44.632;10.942;2023-02-10T02:35:01;3.00;49.80
15554;DHT22;7878;44.632;10.942;2023-02-10T02:37:37;3.10;49.50
15554;DHT22;7878;44.632;10.942;2023-02-10T02:40:05;3.10;49.50
15554;DHT22;7878;44.632;10.942;2023-02-10T02:42:32;3.10;49.50
15554;DHT22;7878;44.632;10.942;2023-02-10T02:45:05;3.10;49.50
15554;DHT22;7878;44.632;10.942;2023-02-10T02:47:50;3.10;49.50
15554;DHT22;7878;44.632;10.942;2023-02-10T02:58:29;3.00;49.80
15554;DHT22;7878;44.632;10.942;2023-02-10T03:00:58;3.00;49.90
15554;DHT22;7878;44.632;10.942;2023-02-10T03:03:31;2.90;49.70
15554;DHT22;7878;44.632;10.942;2023-02-10T03:05:59;2.90;49.80
15554;DHT22;7878;44.632;10.942;2023-02-10T03:08:26;2.90;49.80
15554;DHT22;7878;44.632;10.942;2023-02-10T03:10:52;2.90;49.80
15554;DHT22;7878;44.632;10.942;2023-02-10T03:13:17;2.90;49.70
15554;DHT22;7878;44.632;10.942;2023-02-10T03:15:43;2.80;49.60
15554;DHT22;7878;44.632;10.942;2023-02-10T03:18:09;2.80;49.60
15554;DHT22;7878;44.632;10.942;2023-02-10T03:20:34;2.80;49.60
15554;DHT22;7878;44.632;10.942;2023-02-10T03:23:00;2.80;49.60
15554;DHT22;7878;44.632;10.942;2023-02-10T03:25:26;2.80;49.50
15554;DHT22;7878;44.632;10.942;2023-02-10T03:27:51;2.80;49.70
15554;DHT22;7878;44.632;10.942;2023-02-10T03:30:17;2.80;49.70
15554;DHT22;7878;44.632;10.942;2023-02-10T03:32:43;2.80;49.80
15554;DHT22;7878;44.632;10.942;2023-02-10T03:35:08;2.70;49.70
15554;DHT22;7878;44.632;10.942;2023-02-10T03:37:34;2.80;49.80
15554;DHT22;7878;44.632;10.942;2023-02-10T03:40:00;2.80;49.80
15554;DHT22;7878;44.632;10.942;2023-02-10T03:42:25;2.70;49.70
15554;DHT22;7878;44.632;10.942;2023-02-10T03:44:51;2.70;49.70
15554;DHT22;7878;44.632;10.942;2023-02-10T03:47:16;2.70;49.70
15554;DHT22;7878;44.632;10.942;2023-02-10T03:49:42;2.70;49.70
15554;DHT22;7878;44.632;10.942;2023-02-10T03:52:08;2.70;50.00
15554;DHT22;7878;44.632;10.942;2023-02-10T03:54:33;2.70;50.10
15554;DHT22;7878;44.632;10.942;2023-02-10T03:56:59;2.70;50.00
15554;DHT22;7878;44.632;10.942;2023-02-10T03:59:25;2.70;50.00
15554;DHT22;7878;44.632;10.942;2023-02-10T04:01:51;2.60;50.10
15554;DHT22;7878;44.632;10.942;2023-02-10T04:04:16;2.60;50.20
15554;DHT22;7878;44.632;10.942;2023-02-10T04:06:42;2.60;50.10
15554;DHT22;7878;44.632;10.942;2023-02-10T04:09:08;2.60;50.30
15554;DHT22;7878;44.632;10.942;2023-02-10T04:11:33;2.60;50.40
15554;DHT22;7878;44.632;10.942;2023-02-10T04:13:59;2.60;50.40
15554;DHT22;7878;44.632;10.942;2023-02-10T04:16:25;2.60;50.40
15554;DHT22;7878;44.632;10.942;2023-02-10T04:18:53;2.60;50.50
15554;DHT22;7878;44.632;10.942;2023-02-10T04:21:19;2.50;50.30
15554;DHT22;7878;44.632;10.942;2023-02-10T04:23:45;2.50;50.50
15554;DHT22;7878;44.632;10.942;2023-02-10T04:26:11;2.50;50.50
15554;DHT22;7878;44.632;10.942;2023-02-10T04:28:37;2.50;50.60
15554;DHT22;7878;44.632;10.942;2023-02-10T04:31:03;2.50;50.60
15554;DHT22;7878;44.632;10.942;2023-02-10T04:33:30;2.50;50.60
15554;DHT22;7878;44.632;10.942;2023-02-10T04:35:56;2.40;50.60
15554;DHT22;7878;44.632;10.942;2023-02-10T04:38:22;2.40;50.60
15554;DHT22;7878;44.632;10.942;2023-02-10T04:40:47;2.40;50.50
15554;DHT22;7878;44.632;10.942;2023-02-10T04:43:13;2.40;50.70
15554;DHT22;7878;44.632;10.942;2023-02-10T04:45:39;2.40;50.90
15554;DHT22;7878;44.632;10.942;2023-02-10T04:48:05;2.40;50.80
15554;DHT22;7878;44.632;10.942;2023-02-10T04:50:31;2.40;50.80
15554;DHT22;7878;44.632;10.942;2023-02-10T04:52:57;2.40;50.90
15554;DHT22;7878;44.632;10.942;2023-02-10T04:55:22;2.40;50.90
15554;DHT22;7878;44.632;10.942;2023-02-10T04:57:48;2.40;50.70
15554;DHT22;7878;44.632;10.942;2023-02-10T05:00:14;2.40;50.70
15554;DHT22;7878;44.632;10.942;2023-02-10T05:02:40;2.30;50.50
15554;DHT22;7878;44.632;10.942;2023-02-10T05:05:07;2.30;50.50
15554;DHT22;7878;44.632;10.942;2023-02-10T05:07:32;2.40;50.50
15554;DHT22;7878;44.632;10.942;2023-02-10T05:09:58;2.40;50.40
15554;DHT22;7878;44.632;10.942;2023-02-10T05:12:24;2.40;50.30
15554;DHT22;7878;44.632;10.942;2023-02-10T05:14:49;2.40;50.00
15554;DHT22;7878;44.632;10.942;2023-02-10T05:17:15;2.40;49.90
15554;DHT22;7878;44.632;10.942;2023-02-10T05:19:41;2.30;49.80
15554;DHT22;7878;44.632;10.942;2023-02-10T05:22:06;2.30;49.70
15554;DHT22;7878;44.632;10.942;2023-02-10T05:24:32;2.30;49.80
15554;DHT22;7878;44.632;10.942;2023-02-10T05:26:58;2.30;50.00
15554;DHT22;7878;44.632;10.942;2023-02-10T05:29:23;2.30;49.80
15554;DHT22;7878;44.632;10.942;2023-02-10T05:31:49;2.30;49.70
15554;DHT22;7878;44.632;10.942;2023-02-10T05:34:15;2.30;49.60
15554;DHT22;7878;44.632;10.942;2023-02-10T05:36:40;2.30;49.90
15554;DHT22;7878;44.632;10.942;2023-02-10T05:39:08;2.40;49.70
15554;DHT22;7878;44.632;10.942;2023-02-10T05:41:51;2.30;49.70
15554;DHT22;7878;44.632;10.942;2023-02-10T05:44:17;2.30;49.70
15554;DHT22;7878;44.632;10.942;2023-02-10T05:46:42;2.30;49.50
15554;DHT22;7878;44.632;10.942;2023-02-10T05:49:08;2.30;49.50
15554;DHT22;7878;44.632;10.942;2023-02-10T05:51:34;2.30;49.50
15554;DHT22;7878;44.632;10.942;2023-02-10T05:53:59;2.30;49.50
15554;DHT22;7878;44.632;10.942;2023-02-10T05:56:25;2.30;49.50
15554;DHT22;7878;44.632;10.942;2023-02-10T05:58:51;2.30;49.60
15554;DHT22;7878;44.632;10.942;2023-02-10T06:01:17;2.30;49.30
15554;DHT22;7878;44.632;10.942;2023-02-10T06:03:42;2.30;49.50
15554;DHT22;7878;44.632;10.942;2023-02-10T06:06:08;2.30;49.50
15554;DHT22;7878;44.632;10.942;2023-02-10T06:08:34;2.30;49.70
15554;DHT22;7878;44.632;10.942;2023-02-10T06:10:59;2.30;49.60
15554;DHT22;7878;44.632;10.942;2023-02-10T06:13:25;2.30;49.50
15554;DHT22;7878;44.632;10.942;2023-02-10T06:15:50;2.30;49.40
15554;DHT22;7878;44.632;10.942;2023-02-10T06:18:16;2.30;49.70
15554;DHT22;7878;44.632;10.942;2023-02-10T06:20:45;2.20;49.80
15554;DHT22;7878;44.632;10.942;2023-02-10T06:23:11;2.20;50.00
15554;DHT22;7878;44.632;10.942;2023-02-10T06:25:37;2.20;50.30
15554;DHT22;7878;44.632;10.942;2023-02-10T06:28:03;2.20;50.20
15554;DHT22;7878;44.632;10.942;2023-02-10T06:30:29;2.20;50.00
15554;DHT22;7878;44.632;10.942;2023-02-10T06:32:55;2.20;50.00
15554;DHT22;7878;44.632;10.942;2023-02-10T06:35:20;2.20;50.00
15554;DHT22;7878;44.632;10.942;2023-02-10T06:37:46;2.20;50.00
15554;DHT22;7878;44.632;10.942;2023-02-10T06:40:12;2.30;50.00
15554;DHT22;7878;44.632;10.942;2023-02-10T06:42:38;2.30;50.10
15554;DHT22;7878;44.632;10.942;2023-02-10T06:45:04;2.30;50.00
15554;DHT22;7878;44.632;10.942;2023-02-10T06:47:30;2.30;50.00
15554;DHT22;7878;44.632;10.942;2023-02-10T06:49:56;2.30;50.30
15554;DHT22;7878;44.632;10.942;2023-02-10T06:52:21;2.30;50.10
15554;DHT22;7878;44.632;10.942;2023-02-10T06:54:50;2.30;50.10
15554;DHT22;7878;44.632;10.942;2023-02-10T06:57:15;2.30;50.10
15554;DHT22;7878;44.632;10.942;2023-02-10T06:59:41;2.30;50.00
15554;DHT22;7878;44.632;10.942;2023-02-10T07:02:10;2.30;50.00
15554;DHT22;7878;44.632;10.942;2023-02-10T07:04:35;2.40;49.80
15554;DHT22;7878;44.632;10.942;2023-02-10T07:07:02;2.40;49.60
15554;DHT22;7878;44.632;10.942;2023-02-10T07:09:27;2.40;49.40
15554;DHT22;7878;44.632;10.942;2023-02-10T07:11:53;2.50;49.50
15554;DHT22;7878;44.632;10.942;2023-02-10T07:14:19;2.50;49.40
15554;DHT22;7878;44.632;10.942;2023-02-10T07:16:45;2.60;49.30
15554;DHT22;7878;44.632;10.942;2023-02-10T07:19:10;2.60;49.00
15554;DHT22;7878;44.632;10.942;2023-02-10T07:21:36;2.60;48.80
15554;DHT22;7878;44.632;10.942;2023-02-10T07:24:04;2.70;48.60
15554;DHT22;7878;44.632;10.942;2023-02-10T07:26:29;2.70;48.60
15554;DHT22;7878;44.632;10.942;2023-02-10T07:28:55;2.70;48.70
15554;DHT22;7878;44.632;10.942;2023-02-10T07:31:21;2.70;48.60
15554;DHT22;7878;44.632;10.942;2023-02-10T07:33:46;2.70;48.80
15554;DHT22;7878;44.632;10.942;2023-02-10T07:36:12;2.80;48.40
15554;DHT22;7878;44.632;10.942;2023-02-10T07:38:38;2.80;48.60
15554;DHT22;7878;44.632;10.942;2023-02-10T07:41:07;2.90;48.30
15554;DHT22;7878;44.632;10.942;2023-02-10T07:43:33;2.90;48.20
15554;DHT22;7878;44.632;10.942;2023-02-10T07:45:59;3.10;48.20
15554;DHT22;7878;44.632;10.942;2023-02-10T07:48:25;3.10;48.10
15554;DHT22;7878;44.632;10.942;2023-02-10T07:50:51;3.20;48.00
15554;DHT22;7878;44.632;10.942;2023-02-10T07:53:21;3.20;48.00
15554;DHT22;7878;44.632;10.942;2023-02-10T07:55:47;3.20;47.70
15554;DHT22;7878;44.632;10.942;2023-02-10T07:58:13;3.30;48.10
15554;DHT22;7878;44.632;10.942;2023-02-10T08:00:39;3.30;48.00
15554;DHT22;7878;44.632;10.942;2023-02-10T08:03:04;3.30;47.90
15554;DHT22;7878;44.632;10.942;2023-02-10T08:05:30;3.30;47.80
15554;DHT22;7878;44.632;10.942;2023-02-10T08:07:56;3.40;48.00
15554;DHT22;7878;44.632;10.942;2023-02-10T08:10:22;3.50;48.00
15554;DHT22;7878;44.632;10.942;2023-02-10T08:12:48;3.50;47.70
15554;DHT22;7878;44.632;10.942;2023-02-10T08:15:14;3.60;47.60
15554;DHT22;7878;44.632;10.942;2023-02-10T08:17:43;3.70;47.70
15554;DHT22;7878;44.632;10.942;2023-02-10T08:20:09;3.70;47.20
15554;DHT22;7878;44.632;10.942;2023-02-10T08:22:35;3.80;47.50
15554;DHT22;7878;44.632;10.942;2023-02-10T08:25:01;3.90;47.20
15554;DHT22;7878;44.632;10.942;2023-02-10T08:27:27;4.00;47.50
15554;DHT22;7878;44.632;10.942;2023-02-10T08:29:54;4.00;47.20
15554;DHT22;7878;44.632;10.942;2023-02-10T08:32:20;4.20;47.40
15554;DHT22;7878;44.632;10.942;2023-02-10T08:34:49;5.60;47.80
15554;DHT22;7878;44.632;10.942;2023-02-10T08:37:16;7.90;46.50
15554;DHT22;7878;44.632;10.942;2023-02-10T08:39:42;10.10;42.60
15554;DHT22;7878;44.632;10.942;2023-02-10T08:42:07;11.50;40.50
15554;DHT22;7878;44.632;10.942;2023-02-10T08:44:33;12.70;39.40
15554;DHT22;7878;44.632;10.942;2023-02-10T08:46:59;13.40;38.50
15554;DHT22;7878;44.632;10.942;2023-02-10T08:49:24;14.50;38.40
15554;DHT22;7878;44.632;10.942;2023-02-10T08:51:51;15.10;37.50
15554;DHT22;7878;44.632;10.942;2023-02-10T08:54:17;15.40;36.80
15554;DHT22;7878;44.632;10.942;2023-02-10T08:56:43;15.60;36.80
15554;DHT22;7878;44.632;10.942;2023-02-10T08:59:09;15.60;36.40
15554;DHT22;7878;44.632;10.942;2023-02-10T09:01:35;15.30;35.80
15554;DHT22;7878;44.632;10.942;2023-02-10T09:04:00;14.90;35.90
15554;DHT22;7878;44.632;10.942;2023-02-10T09:06:32;14.60;36.70
15554;DHT22;7878;44.632;10.942;2023-02-10T09:08:59;14.50;37.50
15554;DHT22;7878;44.632;10.942;2023-02-10T09:11:26;14.60;38.20
15554;DHT22;7878;44.632;10.942;2023-02-10T09:13:52;15.40;38.20
15554;DHT22;7878;44.632;10.942;2023-02-10T09:16:18;16.50;37.40
15554;DHT22;7878;44.632;10.942;2023-02-10T09:18:44;17.30;37.00
15554;DHT22;7878;44.632;10.942;2023-02-10T09:21:10;18.10;36.20
15554;DHT22;7878;44.632;10.942;2023-02-10T09:23:37;18.40;35.60
15554;DHT22;7878;44.632;10.942;2023-02-10T09:26:03;17.40;34.70
15554;DHT22;7878;44.632;10.942;2023-02-10T09:28:29;16.10;35.80
15554;DHT22;7878;44.632;10.942;2023-02-10T09:30:55;14.90;36.40
15554;DHT22;7878;44.632;10.942;2023-02-10T09:33:20;13.80;36.80
15554;DHT22;7878;44.632;10.942;2023-02-10T09:35:47;13.00;37.90
15554;DHT22;7878;44.632;10.942;2023-02-10T09:38:13;12.40;38.00
15554;DHT22;7878;44.632;10.942;2023-02-10T09:40:50;11.70;38.60
15554;DHT22;7878;44.632;10.942;2023-02-10T09:45:46;10.70;39.60
15554;DHT22;7878;44.632;10.942;2023-02-10T09:54:00;10.00;40.20
15554;DHT22;7878;44.632;10.942;2023-02-10T09:56:26;10.20;39.50
15554;DHT22;7878;44.632;10.942;2023-02-10T09:58:56;10.60;40.00
15554;DHT22;7878;44.632;10.942;2023-02-10T10:01:45;11.50;39.20
15554;DHT22;7878;44.632;10.942;2023-02-10T10:04:19;13.20;38.60
15554;DHT22;7878;44.632;10.942;2023-02-10T10:06:49;14.00;37.70
15554;DHT22;7878;44.632;10.942;2023-02-10T10:09:23;14.50;36.60
15554;DHT22;7878;44.632;10.942;2023-02-10T10:11:53;14.40;36.90
15554;DHT22;7878;44.632;10.942;2023-02-10T10:14:22;14.40;36.90
15554;DHT22;7878;44.632;10.942;2023-02-10T10:30:13;18.20;34.80
15554;DHT22;7878;44.632;10.942;2023-02-10T10:32:46;19.70;34.70
15554;DHT22;7878;44.632;10.942;2023-02-10T10:35:34;21.60;34.00
15554;DHT22;7878;44.632;10.942;2023-02-10T10:38:10;23.60;31.30
15554;DHT22;7878;44.632;10.942;2023-02-10T10:40:37;25.00;32.70
15554;DHT22;7878;44.632;10.942;2023-02-10T10:43:03;25.30;32.60
15554;DHT22;7878;44.632;10.942;2023-02-10T10:45:39;24.10;32.70
15554;DHT22;7878;44.632;10.942;2023-02-10T10:48:12;23.00;31.30
15554;DHT22;7878;44.632;10.942;2023-02-10T10:50:39;23.10;33.70
15554;DHT22;7878;44.632;10.942;2023-02-10T10:53:15;24.80;34.50
15554;DHT22;7878;44.632;10.942;2023-02-10T10:55:51;26.60;32.40
15554;DHT22;7878;44.632;10.942;2023-02-10T11:00:55;29.30;30.70
15554;DHT22;7878;44.632;10.942;2023-02-10T11:03:21;30.20;31.30
15554;DHT22;7878;44.632;10.942;2023-02-10T11:08:29;31.10;28.10
15554;DHT22;7878;44.632;10.942;2023-02-10T11:10:57;31.30;29.20
15554;DHT22;7878;44.632;10.942;2023-02-10T11:13:26;31.50;29.20
15554;DHT22;7878;44.632;10.942;2023-02-10T11:16:06;31.50;29.00
15554;DHT22;7878;44.632;10.942;2023-02-10T11:18:32;31.50;28.10
15554;DHT22;7878;44.632;10.942;2023-02-10T11:21:01;30.20;29.50
15554;DHT22;7878;44.632;10.942;2023-02-10T11:23:28;28.10;29.90
15554;DHT22;7878;44.632;10.942;2023-02-10T11:28:30;27.10;29.10
15554;DHT22;7878;44.632;10.942;2023-02-10T11:31:06;27.20;30.70
15554;DHT22;7878;44.632;10.942;2023-02-10T11:33:38;28.90;29.90
15554;DHT22;7878;44.632;10.942;2023-02-10T11:36:08;30.50;31.00
15554;DHT22;7878;44.632;10.942;2023-02-10T11:38:34;31.60;30.40
15554;DHT22;7878;44.632;10.942;2023-02-10T11:41:08;32.60;29.00
15554;DHT22;7878;44.632;10.942;2023-02-10T11:43:46;33.30;27.40
15554;DHT22;7878;44.632;10.942;2023-02-10T11:46:26;33.60;26.80
15554;DHT22;7878;44.632;10.942;2023-02-10T11:49:00;34.30;26.70
15554;DHT22;7878;44.632;10.942;2023-02-10T11:51:28;34.40;27.50
15554;DHT22;7878;44.632;10.942;2023-02-10T11:53:55;34.80;28.10
15554;DHT22;7878;44.632;10.942;2023-02-10T11:59:34;34.40;27.20
15554;DHT22;7878;44.632;10.942;2023-02-10T12:10:47;31.00;25.00
15554;DHT22;7878;44.632;10.942;2023-02-10T12:29:02;33.00;26.90
15554;DHT22;7878;44.632;10.942;2023-02-10T12:31:44;31.80;25.70
15554;DHT22;7878;44.632;10.942;2023-02-10T12:39:52;33.00;26.20
15554;DHT22;7878;44.632;10.942;2023-02-10T12:42:44;33.40;27.00
15554;DHT22;7878;44.632;10.942;2023-02-10T12:53:35;33.60;26.30
15554;DHT22;7878;44.632;10.942;2023-02-10T12:56:20;33.40;24.20
15554;DHT22;7878;44.632;10.942;2023-02-10T12:58:52;33.40;25.00
15554;DHT22;7878;44.632;10.942;2023-02-10T13:01:37;33.10;27.00
15554;DHT22;7878;44.632;10.942;2023-02-10T13:04:33;32.30;24.60
15554;DHT22;7878;44.632;10.942;2023-02-10T13:09:55;28.50;25.60
15554;DHT22;7878;44.632;10.942;2023-02-10T13:12:41;25.60;29.40
15554;DHT22;7878;44.632;10.942;2023-02-10T13:15:18;22.80;29.00
15554;DHT22;7878;44.632;10.942;2023-02-10T13:17:49;20.70;29.30
15554;DHT22;7878;44.632;10.942;2023-02-10T13:20:34;19.10;31.20
15554;DHT22;7878;44.632;10.942;2023-02-10T13:31:15;15.80;33.40
15554;DHT22;7878;44.632;10.942;2023-02-10T13:36:18;15.00;33.40
15554;DHT22;7878;44.632;10.942;2023-02-10T13:39:01;14.60;33.70
15554;DHT22;7878;44.632;10.942;2023-02-10T13:41:34;14.40;33.20
15554;DHT22;7878;44.632;10.942;2023-02-10T13:44:27;14.10;32.70
15554;DHT22;7878;44.632;10.942;2023-02-10T13:49:35;14.00;33.20
15554;DHT22;7878;44.632;10.942;2023-02-10T13:52:18;13.90;33.20
15554;DHT22;7878;44.632;10.942;2023-02-10T13:54:54;13.80;33.40
15554;DHT22;7878;44.632;10.942;2023-02-10T13:57:28;13.60;33.70
15554;DHT22;7878;44.632;10.942;2023-02-10T14:00:18;13.40;33.50
15554;DHT22;7878;44.632;10.942;2023-02-10T14:02:45;13.10;34.20
15554;DHT22;7878;44.632;10.942;2023-02-10T14:07:53;12.90;34.40
15554;DHT22;7878;44.632;10.942;2023-02-10T14:15:24;12.60;34.40
15554;DHT22;7878;44.632;10.942;2023-02-10T14:18:38;12.60;34.90
15554;DHT22;7878;44.632;10.942;2023-02-10T14:20:45;12.60;35.00
15554;DHT22;7878;44.632;10.942;2023-02-10T14:23:19;12.50;35.20
15554;DHT22;7878;44.632;10.942;2023-02-10T14:25:47;12.50;34.50
15554;DHT22;7878;44.632;10.942;2023-02-10T14:28:22;12.40;35.30
15554;DHT22;7878;44.632;10.942;2023-02-10T14:30:54;12.30;34.10
15554;DHT22;7878;44.632;10.942;2023-02-10T14:33:25;12.20;33.70
15554;DHT22;7878;44.632;10.942;2023-02-10T14:35:53;12.10;34.00
15554;DHT22;7878;44.632;10.942;2023-02-10T14:38:21;12.10;34.10
15554;DHT22;7878;44.632;10.942;2023-02-10T14:40:48;12.00;35.00
15554;DHT22;7878;44.632;10.942;2023-02-10T14:43:18;11.90;35.00
15554;DHT22;7878;44.632;10.942;2023-02-10T14:45:45;11.90;35.10
15554;DHT22;7878;44.632;10.942;2023-02-10T14:48:14;11.80;35.30
15554;DHT22;7878;44.632;10.942;2023-02-10T14:50:40;11.70;35.30
15554;DHT22;7878;44.632;10.942;2023-02-10T14:53:17;11.70;35.80
15554;DHT22;7878;44.632;10.942;2023-02-10T14:55:43;11.60;35.30
15554;DHT22;7878;44.632;10.942;2023-02-10T14:58:16;11.60;35.00
15554;DHT22;7878;44.632;10.942;2023-02-10T15:03:31;11.50;35.80
15554;DHT22;7878;44.632;10.942;2023-02-10T15:05:57;11.40;36.10
15554;DHT22;7878;44.632;10.942;2023-02-10T15:08:33;11.40;35.90
15554;DHT22;7878;44.632;10.942;2023-02-10T15:11:01;11.40;34.70
15554;DHT22;7878;44.632;10.942;2023-02-10T15:13:40;11.40;34.80
15554;DHT22;7878;44.632;10.942;2023-02-10T15:16:09;11.30;35.40
15554;DHT22;7878;44.632;10.942;2023-02-10T15:18:40;11.30;35.80
15554;DHT22;7878;44.632;10.942;2023-02-10T15:21:44;11.20;35.50
15554;DHT22;7878;44.632;10.942;2023-02-10T15:24:29;11.20;35.20
15554;DHT22;7878;44.632;10.942;2023-02-10T15:27:13;11.20;35.10
15554;DHT22;7878;44.632;10.942;2023-02-10T15:29:40;11.20;35.50
15554;DHT22;7878;44.632;10.942;2023-02-10T15:32:19;11.10;35.60
15554;DHT22;7878;44.632;10.942;2023-02-10T15:34:45;11.00;35.90
15554;DHT22;7878;44.632;10.942;2023-02-10T15:37:22;10.90;36.00
15554;DHT22;7878;44.632;10.942;2023-02-10T15:40:00;10.90;35.80
15554;DHT22;7878;44.632;10.942;2023-02-10T15:42:29;10.80;35.30
15554;DHT22;7878;44.632;10.942;2023-02-10T15:48:17;10.80;35.30
15554;DHT22;7878;44.632;10.942;2023-02-10T15:50:43;10.70;34.40
15554;DHT22;7878;44.632;10.942;2023-02-10T15:53:11;10.70;35.40
15554;DHT22;7878;44.632;10.942;2023-02-10T15:55:40;10.60;35.80
15554;DHT22;7878;44.632;10.942;2023-02-10T15:58:08;10.60;35.70
15554;DHT22;7878;44.632;10.942;2023-02-10T16:00:35;10.50;35.80
15554;DHT22;7878;44.632;10.942;2023-02-10T16:03:01;10.40;36.70
15554;DHT22;7878;44.632;10.942;2023-02-10T16:05:27;10.40;36.70
15554;DHT22;7878;44.632;10.942;2023-02-10T16:08:01;10.40;36.40
15554;DHT22;7878;44.632;10.942;2023-02-10T16:10:29;10.30;36.40
15554;DHT22;7878;44.632;10.942;2023-02-10T16:12:55;10.30;36.40
15554;DHT22;7878;44.632;10.942;2023-02-10T16:15:23;10.20;36.30
15554;DHT22;7878;44.632;10.942;2023-02-10T16:17:56;10.10;36.10
15554;DHT22;7878;44.632;10.942;2023-02-10T16:20:27;10.10;36.60
15554;DHT22;7878;44.632;10.942;2023-02-10T16:22:53;10.10;36.60
15554;DHT22;7878;44.632;10.942;2023-02-10T16:25:21;10.00;37.00
15554;DHT22;7878;44.632;10.942;2023-02-10T16:27:47;9.90;38.10
15554;DHT22;7878;44.632;10.942;2023-02-10T16:30:25;9.90;38.20
15554;DHT22;7878;44.632;10.942;2023-02-10T16:32:52;9.80;38.30
15554;DHT22;7878;44.632;10.942;2023-02-10T16:35:18;9.70;38.60
15554;DHT22;7878;44.632;10.942;2023-02-10T16:37:43;9.70;39.00
15554;DHT22;7878;44.632;10.942;2023-02-10T16:40:33;9.60;39.00
15554;DHT22;7878;44.632;10.942;2023-02-10T16:43:00;9.60;39.50
15554;DHT22;7878;44.632;10.942;2023-02-10T16:45:28;9.50;39.70
15554;DHT22;7878;44.632;10.942;2023-02-10T16:47:55;9.50;39.60
15554;DHT22;7878;44.632;10.942;2023-02-10T16:50:31;9.50;39.70
15554;DHT22;7878;44.632;10.942;2023-02-10T16:52:57;9.40;40.00
15554;DHT22;7878;44.632;10.942;2023-02-10T16:55:23;9.40;39.90
15554;DHT22;7878;44.632;10.942;2023-02-10T16:57:49;9.30;40.00
15554;DHT22;7878;44.632;10.942;2023-02-10T17:00:16;9.30;40.00
15554;DHT22;7878;44.632;10.942;2023-02-10T17:02:42;9.20;40.20
15554;DHT22;7878;44.632;10.942;2023-02-10T17:05:09;9.20;40.50
15554;DHT22;7878;44.632;10.942;2023-02-10T17:07:35;9.10;40.40
15554;DHT22;7878;44.632;10.942;2023-02-10T17:10:02;9.10;40.50
15554;DHT22;7878;44.632;10.942;2023-02-10T17:12:28;9.00;40.90
15554;DHT22;7878;44.632;10.942;2023-02-10T17:14:54;8.90;41.00
15554;DHT22;7878;44.632;10.942;2023-02-10T17:17:19;8.90;41.30
15554;DHT22;7878;44.632;10.942;2023-02-10T17:19:45;8.80;41.60
15554;DHT22;7878;44.632;10.942;2023-02-10T17:22:10;8.80;41.80
15554;DHT22;7878;44.632;10.942;2023-02-10T17:24:36;8.80;41.70
15554;DHT22;7878;44.632;10.942;2023-02-10T17:27:02;8.80;41.60
15554;DHT22;7878;44.632;10.942;2023-02-10T17:29:28;8.80;42.00
15554;DHT22;7878;44.632;10.942;2023-02-10T17:31:53;8.70;42.10
15554;DHT22;7878;44.632;10.942;2023-02-10T17:34:19;8.70;42.00
15554;DHT22;7878;44.632;10.942;2023-02-10T17:36:45;8.70;42.00
15554;DHT22;7878;44.632;10.942;2023-02-10T17:39:17;8.60;42.10
15554;DHT22;7878;44.632;10.942;2023-02-10T17:41:53;8.60;42.40
15554;DHT22;7878;44.632;10.942;2023-02-10T17:44:19;8.60;42.50
15554;DHT22;7878;44.632;10.942;2023-02-10T17:46:45;8.50;42.60
15554;DHT22;7878;44.632;10.942;2023-02-10T17:49:13;8.50;43.00
15554;DHT22;7878;44.632;10.942;2023-02-10T17:51:39;8.40;42.80